Time;durP1;ratioP1;P1;durP2;ratioP2;P2;SDS_P1;SDS_P2;PMS_P1;PMS_P2;Temp;Humidity;BMP_temperature;BMP_pressure;BME280_temperature;BME280_humidity;BME280_pressure;Samples;Min_cycle;Max_cycle;Signal;HPM_P1;HPM_P2
2022/08/21 00:00:14;;;;;;;11.82;5.53;;;16.20;99.90;;;;;;5083463;28;20507;-72
2022/08/21 00:02:50;;;;;;;9.20;5.22;;;16.20;99.90;;;;;;5063721;28;20399;-72
2022/08/21 00:05:16;;;;;;;9.05;4.90;;;16.20;99.90;;;;;;5088173;28;20035;-72
2022/08/21 00:07:42;;;;;;;7.90;4.75;;;16.20;99.90;;;;;;5085524;28;20039;-72
2022/08/21 00:10:11;;;;;;;9.55;5.22;;;16.20;99.90;;;;;;5050225;28;20041;-72
2022/08/21 00:12:37;;;;;;;8.93;4.88;;;16.20;99.90;;;;;;5075602;28;20036;-72
2022/08/21 00:15:07;;;;;;;6.78;4.80;;;16.10;99.90;;;;;;5067078;28;20055;-72
2022/08/21 00:17:32;;;;;;;9.20;5.30;;;16.10;99.90;;;;;;5087777;28;20037;-72
2022/08/21 00:19:58;;;;;;;10.93;5.65;;;16.10;99.90;;;;;;5069555;28;20048;-72
2022/08/21 00:22:24;;;;;;;11.20;5.63;;;16.10;99.90;;;;;;5089868;28;20041;-72
2022/08/21 00:24:50;;;;;;;10.32;6.15;;;16.10;99.90;;;;;;5070294;28;20055;-72
2022/08/21 00:27:15;;;;;;;9.18;5.25;;;16.10;99.90;;;;;;5072189;28;20129;-72
2022/08/21 00:29:41;;;;;;;13.15;5.35;;;16.00;99.90;;;;;;5067419;28;20142;-72
2022/08/21 00:32:07;;;;;;;9.45;5.22;;;16.00;99.90;;;;;;5075168;28;20040;-73
2022/08/21 00:34:32;;;;;;;11.55;5.60;;;16.00;99.90;;;;;;5060884;28;20103;-72
2022/08/21 00:36:58;;;;;;;9.20;5.75;;;16.00;99.90;;;;;;5083849;28;20052;-72
2022/08/21 00:39:23;;;;;;;8.57;5.80;;;15.90;99.90;;;;;;5074002;28;20040;-72
2022/08/21 00:41:49;;;;;;;8.75;5.15;;;15.90;99.90;;;;;;5083816;28;20032;-72
2022/08/21 00:44:15;;;;;;;9.45;5.45;;;15.90;99.90;;;;;;5069640;28;20032;-72
2022/08/21 00:46:42;;;;;;;8.50;5.25;;;15.90;99.90;;;;;;5075253;28;20036;-72
2022/08/21 00:49:11;;;;;;;10.45;5.63;;;15.80;99.90;;;;;;5073761;28;20048;-72
2022/08/21 00:51:50;;;;;;;10.52;5.57;;;15.80;99.90;;;;;;5072136;28;20044;-72
2022/08/21 00:54:20;;;;;;;9.23;4.97;;;15.80;99.90;;;;;;5072411;28;20048;-72
2022/08/21 00:56:54;;;;;;;9.05;5.93;;;15.80;99.90;;;;;;5083441;28;20040;-72
2022/08/21 00:59:21;;;;;;;7.93;5.30;;;15.80;99.90;;;;;;5090939;28;20040;-72
2022/08/21 01:01:49;;;;;;;10.50;5.43;;;15.80;99.90;;;;;;5089957;28;20382;-72
2022/08/21 01:04:16;;;;;;;10.32;5.68;;;15.70;99.90;;;;;;5083151;28;20040;-72
2022/08/21 01:06:42;;;;;;;8.90;5.40;;;15.70;99.90;;;;;;5077198;28;20127;-72
2022/08/21 01:09:08;;;;;;;8.55;4.53;;;15.70;99.90;;;;;;5077592;28;20040;-72
2022/08/21 01:11:35;;;;;;;6.32;5.40;;;15.70;99.90;;;;;;5077279;28;20054;-72
2022/08/21 01:14:02;;;;;;;9.70;5.57;;;15.70;99.90;;;;;;5071404;28;20043;-72
2022/08/21 01:16:28;;;;;;;6.68;5.80;;;15.70;99.90;;;;;;5072169;28;20044;-72
2022/08/21 01:18:54;;;;;;;8.30;5.60;;;15.60;99.90;;;;;;5075875;28;20050;-72
2022/08/21 01:21:23;;;;;;;11.35;6.68;;;15.60;99.90;;;;;;5089636;28;20096;-72
2022/08/21 01:23:52;;;;;;;9.48;5.88;;;15.60;99.90;;;;;;5092979;28;20089;-72
2022/08/21 01:26:21;;;;;;;11.23;6.05;;;15.60;99.90;;;;;;5091921;28;20092;-72
2022/08/21 01:29:01;;;;;;;10.48;6.70;;;15.50;99.90;;;;;;5095680;28;20040;-72
2022/08/21 01:31:29;;;;;;;11.07;6.60;;;15.60;99.90;;;;;;5097906;28;20043;-73
2022/08/21 01:33:56;;;;;;;10.15;6.70;;;15.50;99.90;;;;;;5107090;28;20027;-73
2022/08/21 01:36:22;;;;;;;10.27;6.45;;;15.50;99.90;;;;;;5079318;28;20043;-72
2022/08/21 01:38:48;;;;;;;9.48;5.72;;;15.50;99.90;;;;;;5106275;28;20131;-72
2022/08/21 01:41:15;;;;;;;3.05;2.47;;;15.50;99.90;;;;;;5097373;28;20032;-72
2022/08/21 01:43:42;;;;;;;4.47;3.10;;;15.50;99.90;;;;;;5097938;28;20040;-72
2022/08/21 01:46:09;;;;;;;4.10;3.33;;;15.40;99.90;;;;;;5079911;28;20039;-72
2022/08/21 01:48:35;;;;;;;3.25;2.05;;;15.30;99.90;;;;;;5094498;28;20070;-72
2022/08/21 01:51:00;;;;;;;5.47;2.72;;;15.30;99.90;;;;;;5103363;28;20031;-72
2022/08/21 01:53:26;;;;;;;5.78;3.42;;;15.20;99.90;;;;;;5097466;28;20031;-72
2022/08/21 01:55:52;;;;;;;2.47;1.60;;;15.10;99.90;;;;;;5104324;28;20036;-72
2022/08/21 01:58:18;;;;;;;8.13;5.53;;;15.10;99.90;;;;;;5093451;28;20047;-72
2022/08/21 02:00:43;;;;;;;5.45;4.63;;;15.00;99.90;;;;;;5095694;28;20054;-72
2022/08/21 02:03:09;;;;;;;10.10;5.28;;;15.00;99.90;;;;;;5093593;28;20032;-72
2022/08/21 02:05:35;;;;;;;7.88;5.68;;;15.00;99.90;;;;;;5103911;28;20035;-72
2022/08/21 02:08:01;;;;;;;10.20;6.65;;;15.00;99.90;;;;;;5101831;28;20113;-72
2022/08/21 02:10:29;;;;;;;8.63;6.30;;;15.00;99.90;;;;;;5067682;28;20054;-72
2022/08/21 02:12:57;;;;;;;11.88;6.72;;;15.00;99.90;;;;;;5101962;28;20032;-72
2022/08/21 02:15:23;;;;;;;9.35;5.82;;;15.00;99.90;;;;;;5110993;28;20046;-72
2022/08/21 02:17:52;;;;;;;8.80;6.40;;;15.00;99.90;;;;;;5105570;28;20051;-72
2022/08/21 02:20:22;;;;;;;9.20;6.85;;;15.00;99.90;;;;;;5081799;28;20517;-72
2022/08/21 02:22:49;;;;;;;9.18;6.80;;;15.00;99.90;;;;;;5080997;28;20506;-72
2022/08/21 02:25:16;;;;;;;8.23;6.13;;;15.00;99.90;;;;;;5076434;28;20040;-72
2022/08/21 02:27:44;;;;;;;10.15;6.57;;;14.90;99.90;;;;;;5076701;28;20093;-72
2022/08/21 02:30:14;;;;;;;6.45;5.43;;;14.90;99.90;;;;;;5054943;28;20092;-72
2022/08/21 02:32:40;;;;;;;5.35;3.00;;;14.90;99.90;;;;;;5073313;28;20059;-72
2022/08/21 02:35:07;;;;;;;3.42;3.13;;;14.80;99.90;;;;;;5073673;28;20048;-72
2022/08/21 02:37:33;;;;;;;6.85;5.18;;;14.80;99.90;;;;;;5093395;28;20089;-72
2022/08/21 02:40:00;;;;;;;3.03;2.72;;;14.70;99.90;;;;;;5076342;28;20426;-72
2022/08/21 02:42:26;;;;;;;1.50;1.20;;;14.70;99.90;;;;;;5068634;28;20046;-72
2022/08/21 02:44:52;;;;;;;6.18;1.20;;;14.60;99.90;;;;;;5076456;28;20036;-72
2022/08/21 02:47:18;;;;;;;0.90;0.90;;;14.60;99.90;;;;;;5094985;28;20044;-72
2022/08/21 02:49:43;;;;;;;0.80;0.80;;;14.50;99.90;;;;;;5076633;28;20479;-72
2022/08/21 02:52:09;;;;;;;0.60;0.60;;;14.50;99.90;;;;;;5095003;28;20131;-72
2022/08/21 02:54:35;;;;;;;0.60;0.60;;;14.30;99.90;;;;;;5076438;28;20059;-72
2022/08/21 02:57:00;;;;;;;0.63;0.63;;;14.20;99.90;;;;;;5075389;28;20040;-72
2022/08/21 02:59:26;;;;;;;3.33;2.65;;;14.20;99.90;;;;;;5074993;28;20040;-72
2022/08/21 03:01:52;;;;;;;2.97;2.38;;;14.10;99.90;;;;;;5064610;28;20120;-72
2022/08/21 03:04:18;;;;;;;4.75;2.75;;;14.10;99.90;;;;;;5084554;28;20036;-72
2022/08/21 03:06:43;;;;;;;3.50;2.97;;;14.10;99.90;;;;;;5090009;28;20522;-72
2022/08/21 03:09:09;;;;;;;9.77;4.30;;;14.10;99.90;;;;;;5078098;28;20036;-72
2022/08/21 03:11:35;;;;;;;6.97;5.60;;;14.10;99.90;;;;;;5073472;28;20051;-72
2022/08/21 03:14:02;;;;;;;10.07;6.30;;;14.10;99.90;;;;;;5085887;28;20479;-72
2022/08/21 03:16:27;;;;;;;8.82;5.75;;;14.10;99.90;;;;;;5066499;28;20524;-72
2022/08/21 03:18:53;;;;;;;5.88;3.90;;;14.10;99.90;;;;;;5081949;28;20041;-72
2022/08/21 03:21:19;;;;;;;7.18;3.50;;;14.10;99.90;;;;;;5069895;28;20051;-72
2022/08/21 03:23:45;;;;;;;4.85;3.55;;;14.10;99.90;;;;;;5079150;28;20468;-72
2022/08/21 03:26:11;;;;;;;3.83;3.38;;;14.10;99.90;;;;;;5082525;28;20032;-72
2022/08/21 03:28:37;;;;;;;5.15;4.65;;;14.10;99.90;;;;;;5089887;28;20392;-72
2022/08/21 03:31:03;;;;;;;7.30;5.68;;;14.20;99.90;;;;;;5076972;28;20490;-72
2022/08/21 03:33:29;;;;;;;7.05;5.95;;;14.20;99.90;;;;;;5081203;28;20458;-72
2022/08/21 03:36:01;;;;;;;9.32;6.30;;;14.20;99.90;;;;;;5072384;28;20115;-72
2022/08/21 03:38:29;;;;;;;9.57;6.45;;;14.20;99.90;;;;;;5100888;28;20036;-72
2022/08/21 03:40:55;;;;;;;9.77;7.35;;;14.20;99.90;;;;;;5076703;28;20491;-72
2022/08/21 03:43:21;;;;;;;9.38;6.30;;;14.30;99.90;;;;;;5074810;28;20086;-72
2022/08/21 03:45:47;;;;;;;8.40;6.70;;;14.20;99.90;;;;;;5073536;28;20040;-72
2022/08/21 03:48:12;;;;;;;11.07;7.50;;;14.30;99.90;;;;;;5078945;28;20043;-72
2022/08/21 03:50:42;;;;;;;8.95;6.35;;;14.30;99.90;;;;;;5062597;28;20040;-72
2022/08/21 03:53:10;;;;;;;11.85;7.50;;;14.30;99.90;;;;;;5086157;28;20058;-72
2022/08/21 03:55:36;;;;;;;12.00;7.00;;;14.30;99.90;;;;;;5078487;28;20059;-72
2022/08/21 03:58:02;;;;;;;11.45;7.13;;;14.30;99.90;;;;;;5084881;28;20033;-72
2022/08/21 04:00:28;;;;;;;13.52;7.80;;;14.20;99.90;;;;;;5073176;28;20028;-72
2022/08/21 04:02:54;;;;;;;19.45;8.82;;;14.30;99.90;;;;;;5108367;28;20372;-72
2022/08/21 04:05:26;;;;;;;13.57;10.23;;;14.30;99.90;;;;;;5090443;28;20482;-72
2022/08/21 04:07:58;;;;;;;10.82;8.65;;;14.30;99.90;;;;;;5091106;28;20040;-72
2022/08/21 04:10:25;;;;;;;15.65;10.38;;;14.30;99.90;;;;;;5091551;28;20048;-72
2022/08/21 04:12:52;;;;;;;19.73;9.73;;;14.30;99.90;;;;;;5094308;28;20044;-72
2022/08/21 04:15:18;;;;;;;14.30;9.63;;;14.30;99.90;;;;;;5093270;28;20050;-72
2022/08/21 04:17:44;;;;;;;14.77;8.82;;;14.30;99.90;;;;;;5087264;28;20131;-72
2022/08/21 04:20:09;;;;;;;15.73;9.50;;;14.30;99.90;;;;;;5076022;28;20044;-72
2022/08/21 04:22:35;;;;;;;12.60;8.45;;;14.30;99.90;;;;;;5070042;28;20040;-72
2022/08/21 04:25:01;;;;;;;14.13;9.68;;;14.30;99.90;;;;;;5082956;28;20032;-72
2022/08/21 04:27:26;;;;;;;11.45;8.65;;;14.30;99.90;;;;;;5072693;28;20042;-72
2022/08/21 04:29:52;;;;;;;15.88;9.57;;;14.30;99.90;;;;;;5073282;28;20046;-72
2022/08/21 04:32:23;;;;;;;11.95;9.30;;;14.30;99.90;;;;;;5055876;28;20040;-72
2022/08/21 04:34:48;;;;;;;15.30;9.63;;;14.30;99.90;;;;;;5056128;28;20045;-72
2022/08/21 04:37:15;;;;;;;16.95;9.55;;;14.30;99.90;;;;;;5055666;28;20049;-72
2022/08/21 04:39:42;;;;;;;12.90;9.20;;;14.30;99.90;;;;;;5064896;28;20036;-72
2022/08/21 04:42:09;;;;;;;12.55;8.85;;;14.30;99.90;;;;;;5060318;28;20037;-72
2022/08/21 04:44:35;;;;;;;16.25;9.60;;;14.30;99.90;;;;;;5073490;28;20032;-72
2022/08/21 04:47:00;;;;;;;11.32;9.23;;;14.40;99.90;;;;;;5054942;28;20055;-72
2022/08/21 04:49:26;;;;;;;11.75;8.52;;;14.40;99.90;;;;;;5055293;28;20040;-72
2022/08/21 04:51:52;;;;;;;14.15;8.70;;;14.40;99.90;;;;;;5055478;28;20128;-72
2022/08/21 04:54:21;;;;;;;13.15;9.20;;;14.40;99.90;;;;;;5059426;28;20047;-72
2022/08/21 04:56:53;;;;;;;13.38;8.70;;;14.40;99.90;;;;;;5065048;28;20040;-72
2022/08/21 04:59:29;;;;;;;11.30;9.18;;;14.40;99.90;;;;;;5046076;28;20044;-72
2022/08/21 05:01:56;;;;;;;13.43;8.48;;;14.40;99.90;;;;;;5061385;28;20036;-72
2022/08/21 05:04:26;;;;;;;13.43;9.60;;;14.40;99.90;;;;;;5086875;28;20122;-72
2022/08/21 05:06:56;;;;;;;14.10;9.07;;;14.40;99.90;;;;;;5064812;28;20106;-72
2022/08/21 05:09:23;;;;;;;12.45;9.27;;;14.40;99.90;;;;;;5075091;28;20143;-72
2022/08/21 05:11:51;;;;;;;14.02;8.80;;;14.40;99.90;;;;;;5074908;28;20079;-72
2022/08/21 05:14:17;;;;;;;12.05;9.00;;;14.40;99.90;;;;;;5079601;28;20116;-72
2022/08/21 05:16:43;;;;;;;11.23;8.88;;;14.50;99.90;;;;;;5074882;28;20040;-72
2022/08/21 05:19:10;;;;;;;14.35;8.93;;;14.50;99.90;;;;;;5074648;28;20059;-72
2022/08/21 05:21:39;;;;;;;12.48;8.23;;;14.50;99.90;;;;;;5074953;28;20119;-72
2022/08/21 05:24:05;;;;;;;10.15;8.80;;;14.50;99.90;;;;;;5088605;28;20035;-72
2022/08/21 05:26:31;;;;;;;11.95;8.35;;;14.50;99.90;;;;;;5068253;28;20117;-72
2022/08/21 05:28:57;;;;;;;12.95;8.57;;;14.50;99.90;;;;;;5074413;28;20047;-72
2022/08/21 05:31:23;;;;;;;12.23;7.93;;;14.50;99.90;;;;;;5068302;28;20118;-72
2022/08/21 05:33:49;;;;;;;13.68;9.75;;;14.60;99.90;;;;;;5072333;28;20672;-72
2022/08/21 05:36:14;;;;;;;16.10;9.60;;;14.60;99.90;;;;;;5074637;28;20040;-72
2022/08/21 05:38:40;;;;;;;10.35;8.60;;;14.60;99.90;;;;;;5069901;28;20048;-72
2022/08/21 05:41:07;;;;;;;12.85;8.98;;;14.60;99.90;;;;;;5071515;28;20031;-72
2022/08/21 05:43:35;;;;;;;11.98;8.25;;;14.70;99.90;;;;;;5088578;28;20051;-72
2022/08/21 05:46:04;;;;;;;11.32;8.15;;;14.70;99.90;;;;;;5070019;28;20036;-72
2022/08/21 05:48:30;;;;;;;10.50;8.38;;;14.70;99.90;;;;;;5072942;28;20072;-72
2022/08/21 05:50:57;;;;;;;13.98;9.55;;;14.80;99.90;;;;;;5085703;28;20094;-72
2022/08/21 05:53:24;;;;;;;14.00;9.10;;;14.80;99.90;;;;;;5074035;28;20050;-72
2022/08/21 05:55:50;;;;;;;19.00;9.70;;;14.90;99.90;;;;;;5082749;28;20039;-72
2022/08/21 05:58:19;;;;;;;16.10;9.48;;;14.90;99.90;;;;;;5073147;28;20051;-72
2022/08/21 06:00:47;;;;;;;16.65;9.95;;;15.00;99.90;;;;;;5092966;28;20131;-72
2022/08/21 06:03:25;;;;;;;18.55;10.68;;;15.00;99.90;;;;;;5042941;28;20047;-72
2022/08/21 06:05:53;;;;;;;12.48;9.05;;;15.10;99.90;;;;;;5066938;28;20093;-72
2022/08/21 06:08:20;;;;;;;17.48;9.25;;;15.20;99.90;;;;;;5071858;28;20155;-72
2022/08/21 06:10:47;;;;;;;14.07;9.30;;;15.30;99.90;;;;;;5075824;28;20529;-72
2022/08/21 06:13:14;;;;;;;16.52;9.13;;;15.30;99.90;;;;;;5055797;28;20049;-72
2022/08/21 06:15:40;;;;;;;17.00;9.13;;;15.40;99.90;;;;;;5059581;28;20048;-72
2022/08/21 06:18:06;;;;;;;16.35;9.10;;;15.50;99.90;;;;;;5075924;28;20047;-72
2022/08/21 06:20:32;;;;;;;14.80;9.63;;;15.60;99.90;;;;;;5072085;28;20036;-72
2022/08/21 06:22:58;;;;;;;17.90;9.30;;;15.60;99.90;;;;;;5058596;28;20036;-72
2022/08/21 06:25:25;;;;;;;17.63;8.75;;;15.70;99.90;;;;;;5080380;28;20054;-72
2022/08/21 06:27:51;;;;;;;12.52;8.25;;;15.80;99.90;;;;;;5075159;28;20664;-72
2022/08/21 06:30:17;;;;;;;18.23;8.23;;;15.80;99.90;;;;;;5068881;28;20040;-72
2022/08/21 06:32:43;;;;;;;14.13;8.35;;;15.90;99.90;;;;;;5085304;28;20082;-72
2022/08/21 06:35:09;;;;;;;16.15;8.40;;;15.90;99.90;;;;;;5058701;28;20061;-72
2022/08/21 06:37:34;;;;;;;13.60;7.75;;;16.00;99.90;;;;;;5049038;28;20073;-72
2022/08/21 06:40:00;;;;;;;14.05;7.93;;;16.10;99.90;;;;;;5072239;28;20040;-72
2022/08/21 06:42:27;;;;;;;14.30;7.63;;;16.20;99.90;;;;;;5083522;28;20036;-72
2022/08/21 06:44:54;;;;;;;14.43;6.95;;;16.30;99.90;;;;;;5045185;28;20452;-72
2022/08/21 06:47:19;;;;;;;14.40;7.20;;;16.40;99.90;;;;;;5085376;28;20056;-72
2022/08/21 06:49:45;;;;;;;13.73;6.22;;;16.50;99.90;;;;;;5077723;28;20044;-72
2022/08/21 06:52:12;;;;;;;14.55;6.32;;;16.60;99.90;;;;;;5055846;28;20052;-72
2022/08/21 06:54:39;;;;;;;15.13;6.35;;;16.80;99.90;;;;;;5070456;28;20040;-73
2022/08/21 06:57:04;;;;;;;11.02;6.03;;;16.90;99.90;;;;;;5094015;28;20039;-72
2022/08/21 06:59:31;;;;;;;15.27;5.53;;;16.90;99.90;;;;;;5087537;28;20037;-72
2022/08/21 07:01:59;;;;;;;13.07;5.88;;;17.10;99.90;;;;;;5082383;28;20423;-72
2022/08/21 07:04:26;;;;;;;14.57;5.90;;;17.20;99.90;;;;;;5075455;28;20072;-72
2022/08/21 07:06:52;;;;;;;15.50;5.75;;;17.30;99.90;;;;;;5059647;28;20071;-72
2022/08/21 07:09:18;;;;;;;14.60;5.55;;;17.50;99.90;;;;;;5042813;28;20410;-72
2022/08/21 07:11:49;;;;;;;11.77;4.20;;;17.60;99.90;;;;;;5062898;28;20051;-73
2022/08/21 07:14:15;;;;;;;12.80;5.10;;;17.70;99.90;;;;;;5074439;28;20044;-73
2022/08/21 07:16:40;;;;;;;13.82;4.78;;;17.80;99.90;;;;;;5060813;28;20044;-73
2022/08/21 07:19:06;;;;;;;13.80;4.55;;;17.90;99.90;;;;;;5108398;28;20071;-73
2022/08/21 07:21:32;;;;;;;14.18;4.35;;;18.10;99.90;;;;;;5098585;28;20047;-73
2022/08/21 07:23:58;;;;;;;11.70;3.50;;;18.20;99.90;;;;;;5091117;28;20058;-73
2022/08/21 07:26:24;;;;;;;14.18;4.55;;;18.30;99.90;;;;;;5098559;28;20036;-73
2022/08/21 07:28:50;;;;;;;13.57;3.80;;;18.40;99.90;;;;;;5093056;28;20032;-73
2022/08/21 07:31:18;;;;;;;14.82;4.10;;;18.60;99.90;;;;;;5095861;28;20461;-73
2022/08/21 07:33:44;;;;;;;14.35;4.38;;;18.60;99.90;;;;;;5092627;28;20042;-73
2022/08/21 07:36:11;;;;;;;12.63;4.53;;;18.90;99.90;;;;;;5071680;28;20065;-73
2022/08/21 07:38:37;;;;;;;11.93;4.47;;;18.90;99.90;;;;;;5092361;28;20041;-73
2022/08/21 07:41:12;;;;;;;11.65;3.38;;;19.10;99.90;;;;;;5103328;28;20042;-73
2022/08/21 07:43:38;;;;;;;14.30;3.70;;;19.20;99.90;;;;;;5074286;28;20063;-71
2022/08/21 07:46:04;;;;;;;15.25;4.15;;;19.30;99.90;;;;;;5076320;28;20043;-73
2022/08/21 07:48:30;;;;;;;11.25;3.72;;;19.40;99.90;;;;;;5044111;28;20036;-74
2022/08/21 07:50:55;;;;;;;12.20;3.70;;;19.50;99.90;;;;;;5095188;28;20032;-73
2022/08/21 07:53:21;;;;;;;13.85;3.55;;;19.60;99.90;;;;;;5092362;28;20028;-73
2022/08/21 07:55:47;;;;;;;10.45;3.20;;;19.70;99.90;;;;;;5092886;28;20051;-73
2022/08/21 07:58:13;;;;;;;12.52;3.50;;;19.80;99.90;;;;;;5076837;28;20387;-73
2022/08/21 08:00:39;;;;;;;12.93;3.10;;;19.90;99.90;;;;;;5095443;28;20039;-73
2022/08/21 08:03:05;;;;;;;11.70;3.38;;;19.90;99.90;;;;;;5094964;28;20509;-73
2022/08/21 08:05:32;;;;;;;9.38;3.25;;;20.00;99.90;;;;;;5099743;28;20044;-73
2022/08/21 08:07:58;;;;;;;12.70;3.28;;;20.10;99.90;;;;;;5096901;28;20044;-73
2022/08/21 08:10:24;;;;;;;9.25;3.40;;;20.20;99.90;;;;;;5094829;28;20071;-73
2022/08/21 08:12:51;;;;;;;10.60;3.50;;;20.30;99.90;;;;;;5093045;28;20039;-73
2022/08/21 08:15:23;;;;;;;10.50;3.50;;;20.40;99.90;;;;;;5097022;28;20085;-73
2022/08/21 08:17:49;;;;;;;16.88;3.58;;;20.40;99.90;;;;;;5066887;28;20040;-73
2022/08/21 08:20:16;;;;;;;13.45;4.30;;;20.40;99.90;;;;;;5073696;28;20061;-73
2022/08/21 08:22:42;;;;;;;13.05;3.42;;;20.40;99.90;;;;;;5089091;28;20036;-73
2022/08/21 08:25:10;;;;;;;11.98;3.92;;;20.40;99.90;;;;;;5072656;28;20038;-73
2022/08/21 08:27:36;;;;;;;13.80;3.85;;;20.40;99.90;;;;;;5073431;28;20044;-73
2022/08/21 08:30:04;;;;;;;11.98;3.65;;;20.50;99.90;;;;;;5089313;28;20036;-73
2022/08/21 08:32:30;;;;;;;12.95;3.92;;;20.70;99.90;;;;;;5074269;28;20119;-73
2022/08/21 08:34:56;;;;;;;10.02;3.67;;;20.80;99.90;;;;;;5067966;28;20071;-73
2022/08/21 08:37:21;;;;;;;14.68;3.78;;;20.90;99.90;;;;;;5072004;28;20033;-73
2022/08/21 08:39:48;;;;;;;11.85;3.78;;;21.00;99.90;;;;;;5070946;28;20033;-73
2022/08/21 08:42:16;;;;;;;11.02;3.67;;;21.20;99.90;;;;;;5088866;28;20035;-73
2022/08/21 08:44:44;;;;;;;10.35;3.30;;;21.30;99.90;;;;;;5092104;28;20033;-73
2022/08/21 08:47:14;;;;;;;13.48;3.53;;;21.30;99.90;;;;;;5073983;28;20047;-73
2022/08/21 08:50:04;;;;;;;18.02;4.30;;;21.40;99.90;;;;;;5070673;28;20079;-73
2022/08/21 08:52:33;;;;;;;12.27;3.20;;;21.50;99.90;;;;;;5059031;28;20097;-73
2022/08/21 08:55:11;;;;;;;10.55;3.38;;;21.50;99.90;;;;;;5072672;28;20044;-73
2022/08/21 08:57:39;;;;;;;12.18;3.45;;;21.70;99.90;;;;;;5070890;28;20078;-73
2022/08/21 09:00:10;;;;;;;10.23;3.40;;;21.80;99.90;;;;;;5071074;28;20040;-77
2022/08/21 09:02:39;;;;;;;10.88;3.97;;;21.90;99.90;;;;;;5093119;28;20032;-78
2022/08/21 09:05:07;;;;;;;11.32;3.38;;;22.00;99.90;;;;;;5065044;28;20072;-77
2022/08/21 09:07:53;;;;;;;8.57;3.00;;;21.90;99.90;;;;;;5094064;28;20036;-77
2022/08/21 09:10:32;;;;;;;10.13;3.08;;;21.80;99.90;;;;;;5074759;28;20048;-72
2022/08/21 09:13:10;;;;;;;11.32;3.20;;;21.90;99.90;;;;;;5092953;28;20036;-72
2022/08/21 09:15:51;;;;;;;8.20;2.83;;;21.80;99.90;;;;;;5075234;28;20068;-73
2022/08/21 09:18:30;;;;;;;5.78;1.98;;;22.10;99.90;;;;;;5073012;28;20044;-72
2022/08/21 09:21:05;;;;;;;7.03;2.20;;;22.10;99.90;;;;;;5082769;28;20111;-73
2022/08/21 09:24:00;;;;;;;9.55;2.15;;;22.40;99.90;;;;;;5081411;28;20056;-73
2022/08/21 09:26:35;;;;;;;9.65;2.28;;;22.40;99.90;;;;;;5081004;28;20055;-73
2022/08/21 09:29:00;;;;;;;9.02;2.42;;;22.50;99.90;;;;;;5080903;28;20036;-73
2022/08/21 09:31:37;;;;;;;10.27;2.10;;;22.30;99.90;;;;;;5084527;28;20039;-73
2022/08/21 09:34:08;;;;;;;8.68;2.17;;;22.30;99.90;;;;;;5079290;28;20119;-73
2022/08/21 09:36:46;;;;;;;6.93;2.00;;;22.50;99.90;;;;;;5082800;28;20123;-73
2022/08/21 09:39:21;;;;;;;8.95;2.05;;;22.60;99.90;;;;;;5076755;28;20042;-73
2022/08/21 09:42:05;;;;;;;9.10;2.28;;;22.70;99.90;;;;;;5087085;28;20379;-73
2022/08/21 09:44:41;;;;;;;12.30;2.53;;;23.00;99.90;;;;;;5084761;28;20044;-72
2022/08/21 09:47:08;;;;;;;8.68;2.00;;;23.10;99.90;;;;;;5088069;28;20071;-73
2022/08/21 09:49:37;;;;;;;7.47;2.20;;;23.10;99.90;;;;;;5070715;28;20098;-72
2022/08/21 09:52:15;;;;;;;7.43;2.17;;;23.40;99.90;;;;;;5085844;28;20041;-72
2022/08/21 09:54:41;;;;;;;8.15;2.03;;;23.40;99.90;;;;;;5082765;28;20075;-72
2022/08/21 09:59:54;;;;;;;13.48;2.63;;;23.50;99.90;;;;;;5079554;28;20063;-74
2022/08/21 10:02:33;;;;;;;9.18;2.55;;;23.50;99.90;;;;;;5077813;28;20039;-72
2022/08/21 10:05:04;;;;;;;11.38;2.55;;;23.50;99.90;;;;;;5077918;28;20041;-71
2022/08/21 10:07:32;;;;;;;8.68;2.25;;;23.30;99.90;;;;;;5067506;28;20051;-72
2022/08/21 10:10:19;;;;;;;6.95;2.08;;;23.70;99.90;;;;;;5079803;28;20059;-72
2022/08/21 10:12:48;;;;;;;10.43;2.55;;;24.10;99.90;;;;;;5070506;28;20052;-71
2022/08/21 10:15:45;;;;;;;9.82;2.50;;;24.30;99.90;;;;;;5081623;28;20074;-72
2022/08/21 10:18:41;;;;;;;9.23;2.42;;;24.50;99.90;;;;;;5107160;28;20044;-72
2022/08/21 10:21:40;;;;;;;10.43;2.42;;;24.60;99.90;;;;;;5083786;28;20036;-72
2022/08/21 10:24:17;;;;;;;7.60;2.47;;;24.30;99.90;;;;;;5086386;28;20032;-72
2022/08/21 10:26:51;;;;;;;7.82;2.20;;;24.40;99.90;;;;;;5090685;28;20067;-72
2022/08/21 10:29:35;;;;;;;8.60;2.00;;;24.70;99.90;;;;;;5084578;28;20044;-72
2022/08/21 10:32:09;;;;;;;8.75;1.92;;;25.00;99.90;;;;;;5073759;28;20047;-72
2022/08/21 10:34:57;;;;;;;8.98;2.42;;;25.20;99.90;;;;;;5080550;28;20050;-72
2022/08/21 10:37:45;;;;;;;10.38;2.90;;;25.50;98.90;;;;;;5077474;28;20119;-72
2022/08/21 10:40:25;;;;;;;7.82;2.10;;;25.50;99.90;;;;;;5074964;28;20041;-73
2022/08/21 10:43:20;;;;;;;7.78;2.22;;;25.40;99.80;;;;;;5070577;28;20123;-72
2022/08/21 10:46:04;;;;;;;8.05;2.28;;;25.00;99.50;;;;;;5066872;28;20046;-72
2022/08/21 10:48:49;;;;;;;8.27;1.80;;;25.00;99.90;;;;;;5080111;28;20083;-72
2022/08/21 10:51:31;;;;;;;8.65;2.00;;;25.20;99.90;;;;;;5086491;28;20509;-72
2022/08/21 10:54:03;;;;;;;;;;;25.40;99.20;;;;;;5089993;28;20043;-73
2022/08/21 10:56:32;;;;;;;9.73;2.10;;;25.60;98.10;;;;;;5083317;28;19916;-73
2022/08/21 10:59:26;;;;;;;7.80;2.33;;;25.90;97.20;;;;;;5088228;28;20040;-72
2022/08/21 11:02:03;;;;;;;10.75;2.28;;;25.70;97.10;;;;;;5100310;28;20452;-72
2022/08/21 11:04:40;;;;;;;7.47;2.38;;;25.60;99.40;;;;;;5065067;28;20075;-73
2022/08/21 11:07:10;;;;;;;8.95;2.45;;;25.70;96.40;;;;;;5084499;28;20478;-72
2022/08/21 11:09:45;;;;;;;9.90;2.30;;;25.90;96.10;;;;;;5092280;28;20040;-72
2022/08/21 11:12:43;;;;;;;8.02;2.00;;;26.10;97.80;;;;;;5095736;28;20044;-73
2022/08/21 11:15:11;;;;;;;4.65;1.92;;;25.80;96.70;;;;;;5095614;28;20541;-72
2022/08/21 11:17:47;;;;;;;9.98;2.28;;;25.40;94.10;;;;;;5095805;28;20410;-73
2022/08/21 11:20:21;;;;;;;7.15;1.98;;;25.20;97.00;;;;;;5071827;28;20033;-73
2022/08/21 11:22:49;;;;;;;10.05;2.40;;;24.90;97.60;;;;;;5078077;28;20122;-73
2022/08/21 11:25:29;;;;;;;9.68;2.40;;;25.00;99.30;;;;;;5067664;28;20535;-72
2022/08/21 11:28:03;;;;;;;8.57;2.00;;;25.00;99.80;;;;;;5069242;28;20048;-72
2022/08/21 11:30:50;;;;;;;10.15;2.45;;;25.10;99.90;;;;;;5061768;28;20698;-72
2022/08/21 11:33:43;;;;;;;9.05;2.53;;;25.10;99.90;;;;;;5077416;28;20647;-72
2022/08/21 11:36:22;;;;;;;9.35;2.40;;;25.20;99.90;;;;;;5063346;28;20089;-72
2022/08/21 11:39:15;;;;;;;9.18;2.42;;;25.30;99.10;;;;;;5067078;28;20048;-72
2022/08/21 11:41:48;;;;;;;6.97;2.22;;;25.60;99.70;;;;;;5102130;28;20482;-72
2022/08/21 11:44:48;;;;;;;8.77;2.38;;;25.70;97.30;;;;;;5102687;28;20036;-73
2022/08/21 11:47:44;;;;;;;9.55;2.35;;;26.00;98.10;;;;;;5063219;28;20112;-72
2022/08/21 11:50:31;;;;;;;11.63;2.35;;;25.90;97.60;;;;;;5083871;28;20032;-72
2022/08/21 11:53:14;;;;;;;9.23;2.22;;;26.10;96.20;;;;;;5090250;28;20043;-72
2022/08/21 11:56:03;;;;;;;7.57;2.00;;;26.40;95.50;;;;;;5098316;28;20382;-72
2022/08/21 11:58:46;;;;;;;7.63;1.92;;;26.40;92.70;;;;;;5078569;28;20048;-72
2022/08/21 12:01:23;;;;;;;6.95;2.00;;;26.40;92.00;;;;;;5071848;28;20036;-71
2022/08/21 12:04:06;;;;;;;6.43;1.83;;;25.80;92.00;;;;;;5075921;28;20048;-72
2022/08/21 12:06:41;;;;;;;8.38;1.85;;;25.90;91.50;;;;;;5075839;28;20103;-71
2022/08/21 12:09:34;;;;;;;10.85;2.10;;;25.80;93.00;;;;;;5075848;28;20100;-72
2022/08/21 12:12:12;;;;;;;7.35;1.92;;;25.80;91.40;;;;;;5057741;28;20401;-72
2022/08/21 12:14:44;;;;;;;10.30;2.20;;;25.60;93.80;;;;;;5063930;28;20052;-71
2022/08/21 12:17:19;;;;;;;6.80;1.80;;;25.40;93.50;;;;;;5060040;28;20040;-72
2022/08/21 12:19:56;;;;;;;8.82;2.72;;;25.40;94.50;;;;;;5085896;28;20098;-71
2022/08/21 12:22:22;;;;;;;7.78;2.20;;;25.30;96.20;;;;;;5096495;28;20035;-72
2022/08/21 12:24:49;;;;;;;10.13;1.90;;;25.50;96.30;;;;;;5075686;28;20093;-72
2022/08/21 12:27:28;;;;;;;7.55;2.10;;;25.60;95.60;;;;;;5090944;28;20069;-72
2022/08/21 12:30:05;;;;;;;10.57;2.00;;;25.60;96.60;;;;;;5094848;28;20112;-72
2022/08/21 12:32:44;;;;;;;4.97;1.60;;;25.70;95.90;;;;;;5078685;28;20054;-70
2022/08/21 12:35:17;;;;;;;8.77;1.90;;;25.80;93.00;;;;;;5090291;28;20058;-71
2022/08/21 12:37:44;;;;;;;5.85;1.73;;;25.90;94.00;;;;;;5076720;28;20060;-72
2022/08/21 12:40:31;;;;;;;4.40;1.63;;;25.90;95.10;;;;;;5095730;28;20035;-72
2022/08/21 12:43:00;;;;;;;18.08;12.45;;;25.90;93.60;;;;;;5095031;28;20084;-71
2022/08/21 12:45:31;;;;;;;6.82;2.05;;;25.90;93.00;;;;;;5089899;28;20036;-72
2022/08/21 12:48:12;;;;;;;6.47;1.83;;;26.20;94.70;;;;;;5088977;28;20043;-72
2022/08/21 12:50:44;;;;;;;5.85;1.95;;;26.60;93.80;;;;;;5093604;28;20048;-72
2022/08/21 12:53:23;;;;;;;;;;;27.00;92.40;;;;;;5086911;28;20035;-72
2022/08/21 12:55:49;;;;;;;7.75;2.10;;;27.10;92.90;;;;;;5095228;28;19919;-72
2022/08/21 12:58:23;;;;;;;6.78;2.20;;;26.60;92.50;;;;;;5084827;28;20419;-72
2022/08/21 13:01:03;;;;;;;8.27;2.33;;;27.00;93.50;;;;;;5091268;28;20055;-73